createdAt,value
2022-08-08T00:00:56.525Z,15.50
2022-08-08T00:02:45.224Z,15.40
2022-08-08T00:06:02.767Z,15.40
2022-08-08T00:08:48.947Z,15.40
2022-08-08T00:12:07.729Z,15.40
2022-08-08T00:15:00.262Z,15.30
2022-08-08T00:18:01.831Z,15.20
2022-08-08T00:20:28.695Z,15.20
2022-08-08T00:23:16.150Z,15.20
2022-08-08T00:25:51.300Z,15.10
2022-08-08T00:28:35.755Z,15.10
2022-08-08T00:32:28.252Z,15.00
2022-08-08T00:34:57.126Z,15.00
2022-08-08T00:37:57.099Z,15.00
2022-08-08T00:41:09.470Z,14.90
2022-08-08T00:44:10.109Z,14.90
2022-08-08T00:47:14.308Z,14.90
2022-08-08T00:50:10.153Z,14.80
2022-08-08T00:52:40.686Z,14.80
2022-08-08T00:56:03.139Z,14.70
2022-08-08T00:59:18.709Z,14.70
2022-08-08T01:03:57.405Z,14.70
2022-08-08T01:06:06.121Z,14.60
2022-08-08T01:09:36.396Z,14.60
2022-08-08T01:12:29.839Z,14.50
2022-08-08T01:15:44.236Z,14.50
2022-08-08T01:18:52.909Z,14.40
2022-08-08T01:22:23.177Z,14.40
2022-08-08T01:25:26.476Z,14.40
2022-08-08T01:28:47.324Z,14.30
2022-08-08T01:32:06.608Z,14.30
2022-08-08T01:35:11.046Z,14.20
2022-08-08T01:38:17.123Z,14.20
2022-08-08T01:41:03.173Z,14.20
2022-08-08T01:44:05.146Z,14.10
2022-08-08T01:47:15.718Z,14.10
2022-08-08T01:50:38.097Z,14.00
2022-08-08T01:55:17.606Z,13.90
2022-08-08T01:57:02.154Z,13.90
2022-08-08T02:00:07.165Z,13.90
2022-08-08T02:03:55.477Z,13.80
2022-08-08T02:06:32.485Z,13.80
2022-08-08T02:09:17.505Z,13.80
2022-08-08T02:11:59.705Z,13.80
2022-08-08T02:14:55.912Z,13.80
2022-08-08T02:18:05.173Z,13.70
2022-08-08T02:21:17.941Z,13.70
2022-08-08T02:24:09.057Z,13.60
2022-08-08T02:27:10.114Z,13.60
2022-08-08T02:30:20.609Z,13.50
2022-08-08T02:33:10.116Z,13.50
2022-08-08T02:36:04.159Z,13.50
2022-08-08T02:38:50.602Z,13.50
2022-08-08T02:42:04.390Z,13.40
2022-08-08T02:48:33.109Z,13.40
2022-08-08T02:51:47.584Z,13.30
2022-08-08T02:55:20.775Z,13.30
2022-08-08T02:57:57.586Z,13.30
2022-08-08T03:01:03.121Z,13.20
2022-08-08T03:05:03.591Z,13.20
2022-08-08T03:07:41.328Z,13.20
2022-08-08T03:11:01.907Z,13.10
2022-08-08T03:15:55.970Z,13.10
2022-08-08T03:17:03.853Z,13.10
2022-08-08T03:20:10.484Z,13.00
2022-08-08T03:22:47.118Z,13.00
2022-08-08T03:25:34.207Z,13.00
2022-08-08T03:28:40.923Z,13.00
2022-08-08T03:35:16.187Z,12.90
2022-08-08T03:38:54.393Z,12.90
2022-08-08T03:40:52.099Z,12.90
2022-08-08T03:43:38.209Z,12.80
2022-08-08T03:46:09.172Z,12.80
2022-08-08T03:49:30.932Z,12.80
2022-08-08T03:51:51.003Z,12.80
2022-08-08T03:54:41.349Z,12.80
2022-08-08T03:58:33.454Z,12.80
2022-08-08T04:00:11.248Z,12.80
2022-08-08T04:02:51.882Z,12.80
2022-08-08T04:05:27.431Z,12.70
2022-08-08T04:08:03.137Z,12.70
2022-08-08T04:10:32.298Z,12.80
2022-08-08T04:13:17.065Z,12.80
2022-08-08T04:15:55.127Z,12.80
2022-08-08T04:18:31.345Z,12.80
2022-08-08T04:21:06.426Z,12.80
2022-08-08T04:24:11.821Z,12.80
2022-08-08T04:26:26.125Z,12.80
2022-08-08T04:32:51.076Z,12.80
2022-08-08T04:35:26.165Z,12.80
2022-08-08T04:38:03.152Z,12.80
2022-08-08T04:40:36.282Z,12.80
2022-08-08T04:43:03.428Z,12.90
2022-08-08T04:45:39.189Z,12.90
2022-08-08T04:48:07.876Z,12.90
2022-08-08T04:50:38.326Z,12.90
2022-08-08T04:53:14.090Z,12.90
2022-08-08T04:55:58.883Z,12.90
2022-08-08T04:58:39.175Z,12.90
2022-08-08T05:01:10.990Z,12.90
2022-08-08T05:04:07.731Z,13.00
2022-08-08T05:06:39.119Z,13.00
2022-08-08T05:13:12.734Z,13.00
2022-08-08T05:16:53.004Z,13.00
2022-08-08T05:18:37.978Z,13.00
2022-08-08T05:21:14.482Z,13.10
2022-08-08T05:23:46.076Z,13.10
2022-08-08T05:26:20.026Z,13.20
2022-08-08T05:28:57.530Z,13.20
2022-08-08T05:32:04.164Z,13.20
2022-08-08T05:34:43.605Z,13.30
2022-08-08T05:37:19.722Z,13.40
2022-08-08T05:40:01.212Z,13.50
2022-08-08T05:42:43.102Z,13.60
2022-08-08T05:45:25.630Z,13.60
2022-08-08T05:48:01.568Z,13.70
2022-08-08T05:50:43.116Z,13.80
2022-08-08T05:53:54.800Z,13.90
2022-08-08T05:56:15.063Z,14.00
2022-08-08T05:58:56.677Z,14.10
2022-08-08T06:01:52.720Z,14.20
2022-08-08T06:04:25.748Z,14.30
2022-08-08T06:07:04.142Z,14.60
2022-08-08T06:09:41.653Z,14.80
2022-08-08T06:12:31.571Z,14.80
2022-08-08T06:15:16.036Z,15.00
2022-08-08T06:18:18.431Z,15.10
2022-08-08T06:20:36.168Z,15.20
2022-08-08T06:23:04.156Z,15.30
2022-08-08T06:25:33.313Z,15.40
2022-08-08T06:28:56.128Z,15.60
2022-08-08T06:31:52.876Z,15.60
2022-08-08T06:34:43.195Z,15.90
2022-08-08T06:37:37.096Z,16.20
2022-08-08T06:40:16.590Z,16.40
2022-08-08T06:43:09.598Z,16.50
2022-08-08T06:45:40.291Z,16.70
2022-08-08T06:48:14.177Z,16.90
2022-08-08T06:50:44.877Z,16.90
2022-08-08T06:53:14.299Z,17.00
2022-08-08T06:56:02.527Z,17.00
2022-08-08T06:58:33.184Z,17.10
2022-08-08T07:01:52.211Z,17.20
2022-08-08T07:04:37.286Z,17.40
2022-08-08T07:07:11.135Z,17.50
2022-08-08T07:09:59.793Z,17.60
2022-08-08T07:12:59.198Z,17.80
2022-08-08T07:16:04.614Z,18.00
2022-08-08T07:19:13.185Z,18.10
2022-08-08T07:22:05.015Z,18.20
2022-08-08T07:24:44.764Z,18.30
2022-08-08T07:27:23.156Z,18.40
2022-08-08T07:30:12.040Z,18.50
2022-08-08T07:32:49.197Z,18.60
2022-08-08T07:35:17.964Z,18.70
2022-08-08T07:38:04.861Z,18.80
2022-08-08T07:40:37.672Z,18.90
2022-08-08T07:43:13.191Z,18.90
2022-08-08T07:46:04.886Z,19.00
2022-08-08T07:48:35.889Z,19.10
2022-08-08T07:51:22.890Z,19.30
2022-08-08T07:54:30.166Z,19.50
2022-08-08T07:57:36.495Z,19.60
2022-08-08T08:00:17.219Z,19.70
2022-08-08T08:02:48.306Z,19.90
2022-08-08T08:05:36.137Z,20.10
2022-08-08T08:08:13.141Z,20.30
2022-08-08T08:10:40.371Z,20.40
2022-08-08T08:13:43.122Z,20.50
2022-08-08T08:16:32.169Z,20.60
2022-08-08T08:19:18.191Z,20.80
2022-08-08T08:21:58.314Z,20.80
2022-08-08T08:24:35.133Z,20.90
2022-08-08T08:27:02.922Z,21.00
2022-08-08T08:29:30.799Z,21.10
2022-08-08T08:32:05.881Z,21.20
2022-08-08T08:34:43.401Z,21.30
2022-08-08T08:37:59.428Z,21.40
2022-08-08T08:40:23.587Z,21.50
2022-08-08T08:42:59.221Z,21.60
2022-08-08T08:45:28.014Z,21.70
2022-08-08T08:47:58.557Z,21.90
2022-08-08T08:50:35.526Z,22.00
2022-08-08T08:53:54.039Z,22.20
2022-08-08T08:56:03.290Z,22.20
2022-08-08T08:58:38.056Z,22.20
2022-08-08T09:01:13.302Z,22.30
2022-08-08T09:03:50.768Z,22.50
2022-08-08T09:06:33.959Z,22.50
2022-08-08T09:09:26.707Z,22.50
2022-08-08T09:12:07.712Z,22.60
2022-08-08T09:14:44.892Z,22.60
2022-08-08T09:17:23.687Z,22.60
2022-08-08T09:22:05.373Z,22.60
2022-08-08T09:23:10.481Z,22.70
2022-08-08T09:25:54.311Z,22.70
2022-08-08T09:28:37.499Z,22.70
2022-08-08T09:31:23.894Z,22.80
2022-08-08T09:34:30.465Z,23.00
2022-08-08T09:36:51.723Z,23.00
2022-08-08T09:40:12.277Z,23.20
2022-08-08T09:43:16.677Z,23.30
2022-08-08T09:46:02.890Z,23.40
2022-08-08T09:48:42.912Z,23.40
2022-08-08T09:51:16.079Z,23.50
2022-08-08T09:54:06.754Z,23.40
2022-08-08T09:56:44.540Z,23.50
2022-08-08T10:00:02.390Z,23.60
2022-08-08T10:02:28.762Z,23.60
2022-08-08T10:05:14.652Z,23.60
2022-08-08T10:08:08.389Z,23.80
2022-08-08T10:10:41.415Z,24.10
2022-08-08T10:13:32.488Z,24.20
2022-08-08T10:16:03.434Z,24.30
2022-08-08T10:18:40.164Z,24.40
2022-08-08T10:21:23.540Z,24.40
2022-08-08T10:24:00.194Z,24.40
2022-08-08T10:26:52.429Z,24.30
2022-08-08T10:29:58.871Z,24.30
2022-08-08T10:32:50.851Z,24.40
2022-08-08T10:36:03.914Z,24.40
2022-08-08T10:38:21.265Z,24.50
2022-08-08T10:40:59.180Z,24.80
2022-08-08T10:43:47.218Z,25.20
2022-08-08T10:46:32.166Z,25.60
2022-08-08T10:49:06.222Z,25.90
2022-08-08T10:51:41.181Z,26.20
2022-08-08T10:54:28.201Z,26.60
2022-08-08T10:56:59.715Z,26.90
2022-08-08T10:59:27.193Z,27.20
2022-08-08T11:02:04.228Z,27.50
2022-08-08T11:04:44.205Z,27.80
2022-08-08T11:08:31.070Z,27.90
2022-08-08T11:10:30.153Z,27.90
2022-08-08T11:16:00.816Z,28.20
2022-08-08T11:18:37.289Z,28.30
2022-08-08T11:21:10.407Z,28.60
2022-08-08T11:24:02.222Z,29.10
2022-08-08T11:26:31.486Z,29.50
2022-08-08T11:29:09.280Z,29.90
2022-08-08T11:31:48.212Z,30.20
2022-08-08T11:34:34.512Z,30.20
2022-08-08T11:38:34.433Z,30.00
2022-08-08T11:40:26.794Z,30.50
2022-08-08T11:42:54.723Z,31.10
2022-08-08T11:45:36.740Z,31.00
2022-08-08T11:48:23.167Z,30.70
2022-08-08T11:50:55.457Z,30.60
2022-08-08T11:53:24.370Z,30.40
2022-08-08T11:55:59.145Z,30.40
2022-08-08T11:58:40.180Z,30.50
2022-08-08T12:01:12.189Z,31.00
2022-08-08T12:03:59.327Z,31.00
2022-08-08T12:06:26.343Z,31.00
2022-08-08T12:09:17.083Z,30.80
2022-08-08T12:11:45.873Z,29.90
2022-08-08T12:14:29.509Z,30.30
2022-08-08T12:17:03.221Z,30.80
2022-08-08T12:19:37.754Z,30.80
2022-08-08T12:22:23.205Z,30.70
2022-08-08T12:24:58.517Z,30.60
2022-08-08T12:27:35.751Z,30.40
2022-08-08T12:30:18.364Z,30.70
2022-08-08T12:32:54.180Z,31.30
2022-08-08T12:35:22.840Z,31.80
2022-08-08T12:38:17.780Z,32.00
2022-08-08T12:40:59.153Z,31.90
2022-08-08T12:43:47.814Z,32.50
2022-08-08T12:46:29.257Z,32.50
2022-08-08T12:49:42.884Z,32.30
2022-08-08T12:51:58.906Z,32.50
2022-08-08T12:54:33.047Z,31.90
2022-08-08T12:57:07.203Z,32.70
2022-08-08T13:00:04.399Z,33.50
2022-08-08T13:02:51.406Z,34.10
2022-08-08T13:05:27.133Z,34.20
2022-08-08T13:08:23.233Z,34.30
2022-08-08T13:11:03.086Z,34.70
2022-08-08T13:13:40.175Z,34.90
2022-08-08T13:16:19.140Z,34.90
2022-08-08T13:18:57.333Z,35.00
2022-08-08T13:21:48.900Z,35.00
2022-08-08T13:24:36.913Z,34.40
2022-08-08T13:27:11.791Z,34.60
2022-08-08T13:29:57.189Z,34.90
2022-08-08T13:32:26.333Z,34.80
2022-08-08T13:35:04.249Z,35.00
2022-08-08T13:38:06.617Z,34.70
2022-08-08T13:40:35.703Z,34.40
2022-08-08T13:43:09.300Z,34.50
2022-08-08T13:45:36.888Z,34.60
2022-08-08T13:48:25.371Z,34.70
2022-08-08T13:50:57.690Z,35.10
2022-08-08T13:53:37.256Z,35.40
2022-08-08T13:56:11.743Z,35.80
2022-08-08T13:58:58.019Z,35.90
2022-08-08T14:01:52.548Z,36.00
2022-08-08T14:04:25.814Z,36.20
2022-08-08T14:07:09.254Z,36.40
2022-08-08T14:10:05.520Z,36.20
2022-08-08T14:12:35.189Z,34.20
2022-08-08T14:15:09.266Z,33.90
2022-08-08T14:17:59.000Z,33.60
2022-08-08T14:20:56.915Z,33.20
2022-08-08T14:24:08.072Z,32.90
2022-08-08T14:26:25.066Z,32.80
2022-08-08T14:29:06.036Z,32.80
2022-08-08T14:32:12.580Z,32.90
2022-08-08T14:34:45.221Z,32.60
2022-08-08T14:37:18.933Z,31.70
2022-08-08T14:40:06.608Z,31.90
2022-08-08T14:42:54.567Z,31.60
2022-08-08T14:46:01.574Z,31.40
2022-08-08T14:48:34.421Z,31.50
2022-08-08T14:51:17.987Z,31.50
2022-08-08T14:53:55.090Z,32.00
2022-08-08T14:56:31.240Z,32.40
2022-08-08T14:58:58.802Z,32.30
2022-08-08T15:01:41.258Z,32.30
2022-08-08T15:04:09.709Z,32.00
2022-08-08T15:06:37.445Z,31.50
2022-08-08T15:09:13.232Z,31.40
2022-08-08T15:11:46.535Z,31.50
2022-08-08T15:14:27.223Z,31.40
2022-08-08T15:17:01.015Z,31.30
2022-08-08T15:19:36.325Z,31.20
2022-08-08T15:22:03.209Z,31.20
2022-08-08T15:24:36.267Z,31.30
2022-08-08T15:27:15.113Z,31.60
2022-08-08T15:29:56.195Z,32.00
2022-08-08T15:32:30.491Z,32.10
2022-08-08T15:35:07.037Z,32.30
2022-08-08T15:37:34.473Z,32.10
2022-08-08T15:40:15.742Z,31.60
2022-08-08T15:42:47.497Z,31.20
2022-08-08T15:45:23.329Z,30.40
2022-08-08T15:48:11.111Z,30.10
2022-08-08T15:51:08.294Z,29.90
2022-08-08T15:53:48.991Z,29.80
2022-08-08T15:56:23.468Z,29.80
2022-08-08T15:58:50.460Z,29.60
2022-08-08T16:01:24.250Z,29.70
2022-08-08T16:04:14.299Z,29.80
2022-08-08T16:06:48.445Z,29.80
2022-08-08T16:13:20.818Z,29.60
2022-08-08T16:13:20.911Z,29.60
2022-08-08T16:15:03.318Z,29.70
2022-08-08T16:17:57.522Z,29.50
2022-08-08T16:20:25.419Z,29.40
2022-08-08T16:23:02.326Z,29.30
2022-08-08T16:25:45.642Z,29.40
2022-08-08T16:28:35.343Z,29.40
2022-08-08T16:31:06.354Z,29.60
2022-08-08T16:33:40.735Z,29.80
2022-08-08T16:36:19.416Z,29.90
2022-08-08T16:39:00.948Z,29.90
2022-08-08T16:41:43.232Z,29.80
2022-08-08T16:44:18.020Z,29.80
2022-08-08T16:47:01.284Z,29.60
2022-08-08T16:49:38.444Z,29.10
2022-08-08T16:55:05.137Z,28.90
2022-08-08T16:55:34.343Z,28.60
2022-08-08T16:58:16.715Z,28.50
2022-08-08T17:00:51.445Z,28.30
2022-08-08T17:03:24.802Z,28.30
2022-08-08T17:06:35.463Z,28.30
2022-08-08T17:08:59.972Z,28.30
2022-08-08T17:11:39.430Z,28.50
2022-08-08T17:14:17.906Z,28.40
2022-08-08T17:16:58.779Z,28.40
2022-08-08T17:19:29.071Z,28.20
2022-08-08T17:22:04.354Z,28.20
2022-08-08T17:27:46.086Z,28.00
2022-08-08T17:30:27.152Z,27.90
2022-08-08T17:34:53.239Z,27.90
2022-08-08T17:35:55.735Z,27.70
2022-08-08T17:38:42.300Z,27.60
2022-08-08T17:41:23.156Z,27.50
2022-08-08T17:44:00.891Z,27.60
2022-08-08T17:46:49.297Z,27.50
2022-08-08T17:49:23.883Z,27.30
2022-08-08T17:52:00.235Z,27.30
2022-08-08T17:54:28.960Z,27.30
2022-08-08T17:57:02.283Z,27.20
2022-08-08T17:59:30.568Z,27.20
2022-08-08T18:02:18.866Z,27.10
2022-08-08T18:04:56.319Z,27.00
2022-08-08T18:08:15.444Z,27.00
2022-08-08T18:10:16.283Z,27.00
2022-08-08T18:12:45.973Z,26.80
2022-08-08T18:15:19.262Z,26.70
2022-08-08T18:18:27.448Z,26.40
2022-08-08T18:20:54.745Z,26.40
2022-08-08T18:23:28.487Z,26.30
2022-08-08T18:26:01.587Z,26.10
2022-08-08T18:28:54.940Z,25.90
2022-08-08T18:31:22.078Z,25.80
2022-08-08T18:34:25.699Z,25.60
2022-08-08T18:36:44.571Z,25.40
2022-08-08T18:39:28.233Z,25.20
2022-08-08T18:42:54.556Z,25.00
2022-08-08T18:49:19.305Z,24.70
2022-08-08T18:51:53.973Z,24.40
2022-08-08T18:54:22.291Z,24.30
2022-08-08T18:56:58.291Z,24.20
2022-08-08T18:59:34.407Z,24.10
2022-08-08T19:02:24.896Z,24.10
2022-08-08T19:05:00.255Z,24.00
2022-08-08T19:07:29.683Z,23.80
2022-08-08T19:10:14.719Z,23.70
2022-08-08T19:12:53.507Z,23.70
2022-08-08T19:15:23.702Z,23.80
2022-08-08T19:18:33.446Z,23.70
2022-08-08T19:20:46.660Z,23.80
2022-08-08T19:23:21.584Z,23.60
2022-08-08T19:26:19.790Z,23.50
2022-08-08T19:28:42.251Z,23.40
2022-08-08T19:31:13.088Z,23.30
2022-08-08T19:34:04.980Z,23.20
2022-08-08T19:36:45.453Z,23.20
2022-08-08T19:39:25.385Z,23.20
2022-08-08T19:42:04.426Z,23.10
2022-08-08T19:44:45.302Z,23.00
2022-08-08T19:47:13.973Z,22.80
2022-08-08T19:50:00.418Z,22.60
2022-08-08T19:52:35.513Z,22.40
2022-08-08T19:55:19.465Z,22.30
2022-08-08T19:57:50.317Z,22.30
2022-08-08T20:00:30.711Z,22.10
2022-08-08T20:03:00.201Z,22.00
2022-08-08T20:06:14.819Z,22.00
2022-08-08T20:08:40.882Z,22.00
2022-08-08T20:11:14.310Z,22.00
2022-08-08T20:14:31.545Z,21.90
2022-08-08T20:16:43.339Z,21.90
2022-08-08T20:19:12.290Z,21.80
2022-08-08T20:21:40.056Z,21.70
2022-08-08T20:24:13.317Z,21.60
2022-08-08T20:26:41.632Z,21.50
2022-08-08T20:29:20.306Z,21.40
2022-08-08T20:32:10.350Z,21.30
2022-08-08T20:34:47.863Z,21.30
2022-08-08T20:37:53.266Z,21.20
2022-08-08T20:40:33.766Z,21.10
2022-08-08T20:43:44.007Z,21.10
2022-08-08T20:46:25.519Z,21.10
2022-08-08T20:49:02.226Z,21.00
2022-08-08T20:51:35.360Z,20.90
2022-08-08T20:54:14.203Z,20.80
2022-08-08T20:57:16.594Z,20.80
2022-08-08T20:59:44.973Z,20.70
2022-08-08T21:02:25.776Z,20.70
2022-08-08T21:05:01.309Z,20.60
2022-08-08T21:07:47.311Z,20.60
2022-08-08T21:10:14.764Z,20.50
2022-08-08T21:12:54.344Z,20.40
2022-08-08T21:16:05.618Z,20.40
2022-08-08T21:18:15.278Z,20.40
2022-08-08T21:20:51.038Z,20.40
2022-08-08T21:23:18.334Z,20.40
2022-08-08T21:25:52.262Z,20.30
2022-08-08T21:28:36.018Z,20.20
2022-08-08T21:31:22.843Z,20.20
2022-08-08T21:33:50.894Z,20.20
2022-08-08T21:36:28.483Z,20.10
2022-08-08T21:39:04.319Z,20.10
2022-08-08T21:41:51.145Z,20.10
2022-08-08T21:44:24.859Z,20.10
2022-08-08T21:48:20.131Z,20.10
2022-08-08T21:49:44.909Z,20.00
2022-08-08T21:54:33.710Z,19.90
2022-08-08T21:56:19.494Z,19.90
2022-08-08T21:58:05.284Z,19.80
2022-08-08T22:00:33.258Z,19.80
2022-08-08T22:03:11.090Z,19.80
2022-08-08T22:05:42.242Z,19.80
2022-08-08T22:08:16.284Z,19.70
2022-08-08T22:10:51.413Z,19.70
2022-08-08T22:13:47.818Z,19.60
2022-08-08T22:16:22.261Z,19.60
2022-08-08T22:18:57.308Z,19.60
2022-08-08T22:21:24.846Z,19.60
2022-08-08T22:24:08.265Z,19.60
2022-08-08T22:27:00.953Z,19.50
2022-08-08T22:29:59.574Z,19.40
2022-08-08T22:32:21.316Z,19.50
2022-08-08T22:34:50.530Z,19.40
2022-08-08T22:37:28.171Z,19.40
2022-08-08T22:40:16.862Z,19.40
2022-08-08T22:42:51.288Z,19.20
2022-08-08T22:45:17.933Z,19.30
2022-08-08T22:47:48.664Z,19.30
2022-08-08T22:50:27.227Z,19.30
2022-08-08T22:54:31.952Z,19.30
2022-08-08T22:56:01.106Z,19.20
2022-08-08T22:58:39.278Z,19.20
2022-08-08T23:01:16.804Z,19.20
2022-08-08T23:04:02.340Z,19.20
2022-08-08T23:06:29.061Z,19.20
2022-08-08T23:09:02.274Z,19.20
2022-08-08T23:12:27.683Z,19.20
2022-08-08T23:14:29.322Z,19.20
2022-08-08T23:16:59.644Z,19.20
2022-08-08T23:19:35.267Z,19.10
2022-08-08T23:22:04.403Z,19.10
2022-08-08T23:24:36.916Z,19.10
2022-08-08T23:27:17.184Z,19.10
2022-08-08T23:30:10.263Z,19.10
2022-08-08T23:32:41.713Z,19.10
2022-08-08T23:35:18.775Z,19.10
2022-08-08T23:38:02.200Z,19.10
2022-08-08T23:40:37.325Z,19.10
2022-08-08T23:43:05.223Z,19.10
2022-08-08T23:48:59.924Z,19.10
2022-08-08T23:49:03.017Z,19.10
2022-08-08T23:51:42.630Z,19.10
2022-08-08T23:54:43.682Z,19.10
2022-08-08T23:57:05.263Z,19.10
2022-08-08T23:59:55.647Z,19.10
